createdAt,value
2018-01-03T00:00:21.550Z,69.30
2018-01-03T00:02:49.158Z,73.00
2018-01-03T00:05:16.697Z,72.43
2018-01-03T00:07:44.260Z,76.47
2018-01-03T00:10:11.805Z,78.97
2018-01-03T00:12:39.437Z,75.90
2018-01-03T00:15:06.977Z,72.33
2018-01-03T00:17:34.515Z,32.10
2018-01-03T00:20:02.062Z,21.93
2018-01-03T00:22:29.603Z,16.53
2018-01-03T00:24:57.177Z,15.30
2018-01-03T00:27:24.730Z,18.20
2018-01-03T00:29:52.308Z,16.57
2018-01-03T00:32:19.851Z,20.73
2018-01-03T00:34:47.442Z,22.93
2018-01-03T00:37:15.081Z,40.33
2018-01-03T00:39:42.682Z,40.90
2018-01-03T00:42:10.225Z,50.80
2018-01-03T00:44:37.779Z,52.17
2018-01-03T00:47:05.362Z,55.97
2018-01-03T00:49:32.945Z,55.47
2018-01-03T00:52:00.481Z,52.73
2018-01-03T00:54:28.089Z,52.03
2018-01-03T00:56:55.645Z,51.93
2018-01-03T00:59:23.189Z,52.13
2018-01-03T01:01:50.818Z,48.43
2018-01-03T01:04:18.417Z,47.27
2018-01-03T01:06:45.957Z,42.97
2018-01-03T01:09:13.518Z,39.90
2018-01-03T01:11:41.061Z,40.97
2018-01-03T01:14:08.702Z,37.57
2018-01-03T01:16:36.242Z,39.53
2018-01-03T01:19:03.784Z,35.17
2018-01-03T01:21:31.398Z,30.77
2018-01-03T01:23:58.945Z,25.43
2018-01-03T01:26:26.522Z,18.30
2018-01-03T01:28:54.117Z,18.30
2018-01-03T01:31:21.720Z,17.70
2018-01-03T01:33:49.335Z,15.90
2018-01-03T01:36:16.882Z,13.93
2018-01-03T01:38:44.459Z,16.20
2018-01-03T01:41:12.061Z,14.90
2018-01-03T01:43:39.600Z,14.10
2018-01-03T01:46:07.145Z,11.83
2018-01-03T01:48:34.691Z,12.30
2018-01-03T01:51:02.349Z,10.33
2018-01-03T01:53:29.887Z,11.20
2018-01-03T01:55:57.421Z,8.87
2018-01-03T01:58:24.969Z,8.00
2018-01-03T02:00:52.509Z,7.37
2018-01-03T02:03:20.090Z,8.00
2018-01-03T02:05:47.677Z,8.33
2018-01-03T02:08:15.209Z,9.63
2018-01-03T02:10:42.804Z,9.43
2018-01-03T02:13:10.401Z,9.77
2018-01-03T02:15:37.989Z,10.50
2018-01-03T02:18:05.551Z,13.27
2018-01-03T02:20:33.176Z,15.70
2018-01-03T02:23:00.792Z,17.53
2018-01-03T02:25:28.394Z,12.30
2018-01-03T02:27:56.029Z,8.80
2018-01-03T02:30:23.642Z,11.73
2018-01-03T02:32:51.238Z,11.03
2018-01-03T02:35:18.782Z,8.80
2018-01-03T02:37:46.322Z,8.03
2018-01-03T02:40:13.965Z,7.73
2018-01-03T02:42:41.570Z,7.00
2018-01-03T02:45:09.105Z,10.03
2018-01-03T02:47:36.705Z,13.07
2018-01-03T02:50:04.298Z,9.30
2018-01-03T02:52:31.877Z,7.80
2018-01-03T02:54:59.470Z,10.07
2018-01-03T02:57:27.078Z,12.73
2018-01-03T02:59:54.694Z,13.67
2018-01-03T03:02:22.298Z,10.67
2018-01-03T03:04:49.866Z,8.83
2018-01-03T03:07:17.463Z,5.70
2018-01-03T03:09:45.017Z,5.77
2018-01-03T03:12:12.564Z,5.57
2018-01-03T03:14:40.098Z,5.70
2018-01-03T03:17:07.730Z,5.23
2018-01-03T03:19:35.265Z,4.27
2018-01-03T03:22:02.830Z,5.67
2018-01-03T03:24:30.462Z,14.47
2018-01-03T03:26:58.065Z,14.30
2018-01-03T03:29:25.641Z,13.20
2018-01-03T03:31:53.177Z,13.80
2018-01-03T03:34:20.770Z,5.87
2018-01-03T03:36:48.376Z,10.80
2018-01-03T03:39:15.975Z,15.27
2018-01-03T03:41:43.554Z,10.10
2018-01-03T03:44:11.089Z,5.37
2018-01-03T03:46:38.616Z,3.50
2018-01-03T03:49:06.162Z,4.10
2018-01-03T03:51:33.693Z,3.90
2018-01-03T03:54:01.300Z,6.03
2018-01-03T03:56:28.833Z,5.23
2018-01-03T03:58:56.378Z,7.77
2018-01-03T04:01:23.937Z,7.90
2018-01-03T04:03:51.472Z,9.73
2018-01-03T04:06:19.045Z,7.67
2018-01-03T04:08:46.638Z,6.23
2018-01-03T04:11:14.173Z,6.10
2018-01-03T04:13:41.713Z,4.60
2018-01-03T04:16:09.310Z,4.33
2018-01-03T04:18:36.937Z,4.60
2018-01-03T04:21:04.469Z,4.00
2018-01-03T04:23:32.061Z,3.00
2018-01-03T04:25:59.661Z,3.70
2018-01-03T04:28:27.202Z,4.20
2018-01-03T04:30:54.778Z,3.17
2018-01-03T04:33:22.313Z,2.77
2018-01-03T04:35:49.845Z,2.80
2018-01-03T04:38:17.381Z,3.83
2018-01-03T04:40:44.986Z,4.73
2018-01-03T04:43:12.621Z,5.00
2018-01-03T04:45:40.160Z,4.97
2018-01-03T04:48:07.758Z,5.73
2018-01-03T04:50:35.300Z,5.43
2018-01-03T04:53:02.853Z,5.10
2018-01-03T04:55:30.501Z,5.10
2018-01-03T04:57:58.038Z,15.07
2018-01-03T05:00:25.578Z,10.90
2018-01-03T05:02:53.130Z,11.37
2018-01-03T05:05:20.669Z,12.40
2018-01-03T05:07:48.259Z,18.70
2018-01-03T05:10:15.809Z,16.30
2018-01-03T05:12:43.356Z,15.63
2018-01-03T05:15:10.914Z,12.37
2018-01-03T05:17:38.466Z,8.83
2018-01-03T05:20:06.041Z,10.20
2018-01-03T05:22:33.653Z,7.80
2018-01-03T05:25:01.237Z,7.37
2018-01-03T05:27:28.830Z,8.40
2018-01-03T05:29:56.365Z,8.60
2018-01-03T05:32:23.938Z,12.00
2018-01-03T05:34:51.485Z,15.20
2018-01-03T05:37:19.025Z,18.03
2018-01-03T05:39:46.570Z,11.90
2018-01-03T05:42:14.118Z,26.80
2018-01-03T05:44:41.698Z,23.50
2018-01-03T05:47:09.240Z,23.20
2018-01-03T05:49:36.777Z,17.83
2018-01-03T05:52:04.382Z,17.70
2018-01-03T05:54:31.929Z,20.17
2018-01-03T05:56:59.592Z,24.40
2018-01-03T05:59:27.139Z,25.47
2018-01-03T06:01:54.682Z,25.40
2018-01-03T06:04:22.291Z,26.00
2018-01-03T06:06:49.834Z,21.60
2018-01-03T06:09:17.473Z,20.00
2018-01-03T06:11:45.018Z,23.67
2018-01-03T06:14:12.549Z,27.53
2018-01-03T06:16:40.107Z,27.50
2018-01-03T06:19:07.706Z,27.23
2018-01-03T06:21:35.283Z,21.40
2018-01-03T06:24:02.836Z,18.53
2018-01-03T06:26:30.385Z,12.07
2018-01-03T06:28:57.929Z,11.50
2018-01-03T06:31:25.520Z,11.17
2018-01-03T06:33:53.189Z,22.77
2018-01-03T06:36:20.730Z,26.70
2018-01-03T06:38:48.270Z,26.90
2018-01-03T06:41:15.838Z,29.90
2018-01-03T06:43:43.386Z,30.90
2018-01-03T06:46:10.967Z,18.33
2018-01-03T06:48:38.509Z,13.20
2018-01-03T06:51:06.052Z,11.63
2018-01-03T06:53:33.666Z,13.90
2018-01-03T06:56:01.215Z,12.33
2018-01-03T06:58:28.808Z,14.40
2018-01-03T07:00:56.348Z,17.93
2018-01-03T07:03:23.904Z,18.57
2018-01-03T07:05:51.527Z,21.80
2018-01-03T07:08:19.128Z,15.07
2018-01-03T07:10:46.711Z,28.33
2018-01-03T07:13:14.268Z,16.03
2018-01-03T07:15:41.870Z,5.77
2018-01-03T07:18:09.411Z,5.13
2018-01-03T07:20:36.996Z,4.50
2018-01-03T07:23:04.570Z,5.60
2018-01-03T07:25:32.109Z,5.10
2018-01-03T07:27:59.643Z,4.90
2018-01-03T07:30:27.193Z,4.77
2018-01-03T07:32:54.741Z,4.70
2018-01-03T07:35:22.317Z,4.03
2018-01-03T07:37:49.853Z,3.93
2018-01-03T07:40:17.392Z,6.13
2018-01-03T07:42:44.993Z,3.97
2018-01-03T07:45:12.597Z,5.80
2018-01-03T07:47:40.162Z,3.70
2018-01-03T07:50:07.693Z,4.00
2018-01-03T07:52:35.235Z,3.20
2018-01-03T07:55:02.798Z,4.90
2018-01-03T07:57:30.398Z,3.67
2018-01-03T07:59:57.969Z,5.40
2018-01-03T08:02:25.500Z,4.93
2018-01-03T08:04:53.039Z,2.80
2018-01-03T08:07:20.645Z,3.07
2018-01-03T08:09:48.242Z,3.53
2018-01-03T08:12:15.876Z,4.07
2018-01-03T08:14:43.466Z,5.90
2018-01-03T08:17:10.999Z,5.80
2018-01-03T08:19:38.551Z,7.00
2018-01-03T08:22:06.158Z,4.40
2018-01-03T08:24:33.734Z,3.90
2018-01-03T08:27:01.278Z,3.60
2018-01-03T08:29:28.839Z,4.07
2018-01-03T08:31:56.395Z,5.40
2018-01-03T08:34:23.941Z,6.00
2018-01-03T08:36:51.571Z,3.50
2018-01-03T08:39:19.106Z,3.63
2018-01-03T08:41:46.645Z,3.70
2018-01-03T08:44:14.197Z,3.70
2018-01-03T08:46:41.797Z,4.27
2018-01-03T08:49:09.382Z,4.60
2018-01-03T08:51:36.981Z,4.07
2018-01-03T08:54:04.573Z,5.47
2018-01-03T08:56:32.117Z,5.90
2018-01-03T08:58:59.659Z,6.80
2018-01-03T09:01:27.237Z,7.20
2018-01-03T09:03:54.769Z,4.40
2018-01-03T09:06:22.322Z,3.93
2018-01-03T09:08:49.934Z,7.10
2018-01-03T09:11:17.478Z,4.60
2018-01-03T09:13:45.064Z,10.07
2018-01-03T09:16:12.606Z,5.57
2018-01-03T09:18:40.213Z,9.07
2018-01-03T09:21:07.833Z,8.20
2018-01-03T09:23:35.368Z,7.33
2018-01-03T09:26:02.962Z,6.43
2018-01-03T09:28:30.507Z,5.73
2018-01-03T09:30:58.075Z,5.63
2018-01-03T09:33:25.686Z,4.33
2018-01-03T09:35:53.294Z,5.53
2018-01-03T09:38:20.865Z,6.60
2018-01-03T09:40:48.462Z,5.97
2018-01-03T09:43:16.070Z,8.40
2018-01-03T09:45:43.617Z,6.70
2018-01-03T09:48:11.209Z,5.63
2018-01-03T09:50:38.797Z,7.23
2018-01-03T09:53:06.348Z,7.07
2018-01-03T09:55:33.913Z,23.47
2018-01-03T09:58:01.465Z,8.93
2018-01-03T10:00:29.028Z,6.70
2018-01-03T10:02:56.690Z,8.23
2018-01-03T10:05:24.251Z,7.33
2018-01-03T10:07:51.797Z,7.40
2018-01-03T10:10:19.452Z,7.90
2018-01-03T10:12:46.996Z,8.37
2018-01-03T10:15:14.586Z,9.73
2018-01-03T10:17:42.127Z,6.40
2018-01-03T10:20:09.672Z,8.50
2018-01-03T10:22:37.221Z,9.43
2018-01-03T10:25:04.762Z,7.00
2018-01-03T10:27:32.347Z,9.00
2018-01-03T10:29:59.889Z,8.20
2018-01-03T10:32:27.506Z,8.23
2018-01-03T10:34:55.074Z,8.60
2018-01-03T10:37:22.621Z,16.60
2018-01-03T10:39:50.205Z,10.37
2018-01-03T10:42:17.807Z,9.47
2018-01-03T10:44:45.358Z,7.07
2018-01-03T10:47:13.117Z,10.77
2018-01-03T10:49:40.674Z,14.17
2018-01-03T10:52:08.661Z,14.00
2018-01-03T10:54:36.263Z,11.60
2018-01-03T10:57:03.806Z,5.67
2018-01-03T10:59:31.474Z,8.60
2018-01-03T11:01:59.017Z,6.83
2018-01-03T11:04:26.671Z,5.30
2018-01-03T11:06:54.218Z,6.77
2018-01-03T11:09:21.765Z,9.47
2018-01-03T11:11:49.323Z,7.60
2018-01-03T11:14:16.929Z,8.90
2018-01-03T11:16:44.517Z,9.33
2018-01-03T11:19:12.061Z,9.30
2018-01-03T11:21:39.670Z,12.10
2018-01-03T11:24:07.314Z,10.17
2018-01-03T11:26:34.865Z,11.83
2018-01-03T11:29:02.442Z,12.33
2018-01-03T11:31:29.981Z,16.60
2018-01-03T11:33:57.581Z,10.60
2018-01-03T11:36:25.189Z,11.00
2018-01-03T11:38:52.738Z,11.37
2018-01-03T11:41:20.325Z,12.13
2018-01-03T11:43:47.873Z,13.53
2018-01-03T11:46:15.473Z,13.80
2018-01-03T11:48:43.078Z,11.47
2018-01-03T11:51:10.634Z,12.80
2018-01-03T11:53:38.278Z,17.33
2018-01-03T11:56:05.841Z,10.43
2018-01-03T11:58:33.369Z,10.10
2018-01-03T12:01:00.986Z,12.13
2018-01-03T12:03:28.585Z,8.47
2018-01-03T12:05:56.165Z,31.17
2018-01-03T12:08:23.762Z,13.80
2018-01-03T12:10:51.393Z,25.07
2018-01-03T12:13:18.945Z,17.60
2018-01-03T12:15:46.550Z,15.43
2018-01-03T12:18:14.191Z,14.67
2018-01-03T12:20:41.733Z,10.47
2018-01-03T12:23:09.277Z,7.73
2018-01-03T12:25:36.830Z,14.93
2018-01-03T12:28:04.362Z,9.93
2018-01-03T12:30:31.967Z,12.97
2018-01-03T12:32:59.516Z,19.70
2018-01-03T12:35:27.050Z,13.50
2018-01-03T12:37:54.606Z,14.13
2018-01-03T12:40:22.202Z,12.50
2018-01-03T12:42:49.783Z,22.07
2018-01-03T12:45:17.331Z,15.13
2018-01-03T12:47:44.941Z,15.50
2018-01-03T12:50:12.507Z,22.13
2018-01-03T12:52:40.111Z,16.17
2018-01-03T12:55:07.689Z,18.60
2018-01-03T12:57:35.230Z,18.63
2018-01-03T13:00:02.843Z,16.50
2018-01-03T13:02:30.400Z,17.37
2018-01-03T13:04:58.068Z,11.87
2018-01-03T13:07:25.649Z,15.60
2018-01-03T13:09:53.251Z,7.50
2018-01-03T13:12:20.790Z,8.93
2018-01-03T13:14:48.346Z,11.60
2018-01-03T13:17:15.880Z,9.20
2018-01-03T13:19:43.461Z,11.20
2018-01-03T13:22:11.070Z,12.77
2018-01-03T13:24:38.610Z,17.03
2018-01-03T13:27:06.161Z,18.13
2018-01-03T13:29:33.697Z,9.23
2018-01-03T13:32:01.357Z,9.77
2018-01-03T13:34:28.905Z,9.87
2018-01-03T13:36:56.445Z,16.77
2018-01-03T13:39:24.005Z,15.90
2018-01-03T13:41:51.546Z,14.43
2018-01-03T13:44:19.116Z,14.63
2018-01-03T13:46:46.657Z,12.00
2018-01-03T13:49:14.195Z,15.07
2018-01-03T13:51:41.799Z,15.17
2018-01-03T13:54:09.336Z,10.83
2018-01-03T13:56:36.910Z,14.37
2018-01-03T13:59:04.446Z,15.07
2018-01-03T14:01:32.050Z,12.97
2018-01-03T14:03:59.664Z,10.03
2018-01-03T14:06:27.206Z,13.10
2018-01-03T14:08:54.916Z,12.60
2018-01-03T14:11:22.464Z,17.30
2018-01-03T14:13:50.010Z,18.50
2018-01-03T14:16:17.562Z,17.33
2018-01-03T14:18:45.165Z,19.10
2018-01-03T14:21:12.736Z,27.60
2018-01-03T14:23:40.329Z,23.63
2018-01-03T14:26:07.909Z,29.60
2018-01-03T14:28:35.456Z,27.27
2018-01-03T14:31:03.000Z,28.97
2018-01-03T14:33:30.581Z,35.57
2018-01-03T14:35:58.131Z,35.60
2018-01-03T14:38:25.671Z,29.50
2018-01-03T14:40:53.212Z,24.40
2018-01-03T14:43:20.814Z,15.47
2018-01-03T14:45:48.443Z,18.50
2018-01-03T14:48:16.047Z,21.23
2018-01-03T14:50:43.622Z,20.37
2018-01-03T14:53:11.222Z,19.57
2018-01-03T14:55:38.833Z,19.67
2018-01-03T14:58:06.408Z,18.70
2018-01-03T15:00:34.023Z,17.00
2018-01-03T15:03:01.566Z,15.23
2018-01-03T15:05:29.114Z,18.63
2018-01-03T15:07:56.719Z,12.97
2018-01-03T15:10:24.298Z,14.47
2018-01-03T15:12:51.893Z,16.90
2018-01-03T15:15:19.429Z,20.47
2018-01-03T15:17:46.982Z,19.07
2018-01-03T15:20:14.532Z,17.30
2018-01-03T15:22:42.141Z,19.70
2018-01-03T15:25:09.748Z,26.17
2018-01-03T15:27:37.296Z,33.00
2018-01-03T15:30:04.918Z,49.77
2018-01-03T15:32:32.461Z,45.43
2018-01-03T15:35:00.111Z,58.23
2018-01-03T15:37:27.658Z,64.50
2018-01-03T15:39:55.269Z,62.43
2018-01-03T15:42:22.838Z,66.00
2018-01-03T15:44:50.389Z,57.60
2018-01-03T15:47:17.985Z,59.20
2018-01-03T15:49:45.526Z,57.80
2018-01-03T15:52:13.073Z,64.27
2018-01-03T15:54:40.625Z,95.93
2018-01-03T15:57:08.171Z,93.73
2018-01-03T15:59:35.817Z,69.53
2018-01-03T16:02:03.498Z,62.37
2018-01-03T16:04:31.047Z,56.43
2018-01-03T16:06:58.599Z,56.67
2018-01-03T16:09:26.152Z,54.27
2018-01-03T16:11:53.725Z,44.00
2018-01-03T16:14:21.275Z,42.93
2018-01-03T16:16:48.825Z,48.50
2018-01-03T16:19:16.437Z,53.27
2018-01-03T16:21:44.034Z,54.67
2018-01-03T16:24:11.632Z,51.30
2018-01-03T16:26:39.169Z,50.60
2018-01-03T16:29:06.775Z,49.57
2018-01-03T16:31:34.426Z,45.77
2018-01-03T16:34:01.962Z,44.17
2018-01-03T16:36:29.598Z,57.20
2018-01-03T16:38:57.141Z,48.47
2018-01-03T16:41:24.684Z,50.30
2018-01-03T16:43:52.290Z,62.73
2018-01-03T16:46:19.833Z,77.93
2018-01-03T16:48:47.466Z,64.80
2018-01-03T16:51:15.057Z,63.53
2018-01-03T16:53:42.621Z,76.03
2018-01-03T16:56:10.169Z,73.37
2018-01-03T16:58:37.765Z,82.80
2018-01-03T17:01:05.434Z,87.40
2018-01-03T17:03:32.981Z,91.37
2018-01-03T17:06:00.521Z,86.07
2018-01-03T17:08:28.159Z,87.10
2018-01-03T17:10:55.774Z,70.67
2018-01-03T17:13:23.409Z,65.23
2018-01-03T17:15:51.010Z,75.50
2018-01-03T17:18:18.553Z,78.80
2018-01-03T17:20:46.172Z,94.50
2018-01-03T17:23:13.843Z,80.83
2018-01-03T17:25:41.969Z,96.87
2018-01-03T17:28:09.514Z,85.90
2018-01-03T17:30:37.061Z,86.27
2018-01-03T17:33:04.617Z,87.83
2018-01-03T17:35:32.214Z,83.40
2018-01-03T17:37:59.861Z,68.23
2018-01-03T17:40:27.458Z,70.10
2018-01-03T17:42:54.997Z,75.63
2018-01-03T17:45:22.618Z,141.30
2018-01-03T17:47:50.175Z,93.77
2018-01-03T17:50:17.759Z,86.87
2018-01-03T17:52:45.370Z,87.23
2018-01-03T17:55:12.921Z,91.37
2018-01-03T17:57:40.543Z,112.90
2018-01-03T18:00:08.161Z,97.43
2018-01-03T18:02:35.753Z,125.40
2018-01-03T18:05:03.311Z,98.23
2018-01-03T18:07:30.914Z,89.97
2018-01-03T18:09:58.464Z,74.37
2018-01-03T18:12:26.016Z,69.27
2018-01-03T18:14:53.649Z,64.43
2018-01-03T18:17:21.251Z,68.27
2018-01-03T18:19:48.794Z,75.30
2018-01-03T18:22:16.344Z,73.70
2018-01-03T18:24:43.900Z,72.80
2018-01-03T18:27:11.536Z,66.93
2018-01-03T18:29:39.142Z,58.90
2018-01-03T18:32:06.683Z,49.43
2018-01-03T18:34:34.237Z,51.17
2018-01-03T18:37:01.861Z,41.80
2018-01-03T18:39:29.456Z,38.10
2018-01-03T18:41:57.073Z,45.73
2018-01-03T18:44:24.622Z,44.67
2018-01-03T18:46:52.173Z,53.37
2018-01-03T18:49:19.709Z,51.27
2018-01-03T18:51:47.289Z,49.80
2018-01-03T18:54:14.833Z,55.17
2018-01-03T18:56:42.373Z,45.67
2018-01-03T18:59:09.926Z,57.40
2018-01-03T19:01:37.526Z,73.13
2018-01-03T19:04:05.106Z,68.03
2018-01-03T19:06:32.719Z,83.10
2018-01-03T19:09:00.331Z,101.27
2018-01-03T19:11:27.889Z,86.03
2018-01-03T19:13:55.429Z,83.80
2018-01-03T19:16:23.086Z,86.87
2018-01-03T19:18:50.627Z,73.87
2018-01-03T19:21:18.174Z,61.00
2018-01-03T19:23:45.725Z,61.67
2018-01-03T19:26:13.268Z,53.83
2018-01-03T19:28:41.367Z,60.53
2018-01-03T19:31:08.911Z,61.83
2018-01-03T19:33:36.453Z,51.00
2018-01-03T19:36:04.005Z,54.23
2018-01-03T19:38:31.556Z,54.53
2018-01-03T19:40:59.136Z,55.90
2018-01-03T19:43:26.741Z,49.53
2018-01-03T19:45:54.278Z,50.67
2018-01-03T19:48:21.825Z,46.80
2018-01-03T19:50:49.356Z,45.17
2018-01-03T19:53:17.005Z,46.00
2018-01-03T19:55:44.611Z,53.17
2018-01-03T19:58:12.233Z,49.90
2018-01-03T20:00:39.919Z,46.27
2018-01-03T20:03:07.530Z,44.73
2018-01-03T20:05:35.194Z,42.33
2018-01-03T20:08:02.802Z,43.57
2018-01-03T20:10:30.414Z,44.30
2018-01-03T20:12:58.031Z,45.80
2018-01-03T20:15:25.639Z,45.70
2018-01-03T20:17:53.363Z,46.30
2018-01-03T20:20:21.026Z,45.27
2018-01-03T20:22:48.645Z,45.70
2018-01-03T20:25:16.261Z,52.70
2018-01-03T20:27:43.878Z,62.73
2018-01-03T20:30:11.546Z,83.57
2018-01-03T20:32:39.174Z,83.40
2018-01-03T20:35:06.778Z,83.60
2018-01-03T20:37:34.393Z,77.50
2018-01-03T20:40:01.998Z,79.30
2018-01-03T20:42:29.655Z,78.13
2018-01-03T20:44:57.275Z,56.20
2018-01-03T20:47:24.882Z,48.20
2018-01-03T20:49:52.506Z,48.33
2018-01-03T20:52:20.189Z,66.63
2018-01-03T20:54:47.854Z,59.80
2018-01-03T20:57:15.449Z,36.37
2018-01-03T20:59:43.041Z,33.13
2018-01-03T21:02:10.653Z,48.37
2018-01-03T21:04:38.312Z,49.10
2018-01-03T21:07:05.996Z,49.67
2018-01-03T21:09:33.590Z,32.23
2018-01-03T21:12:01.193Z,24.30
2018-01-03T21:14:28.810Z,27.60
2018-01-03T21:16:56.422Z,35.27
2018-01-03T21:19:24.127Z,30.83
2018-01-03T21:21:51.722Z,38.00
2018-01-03T21:24:19.324Z,38.30
2018-01-03T21:26:46.925Z,24.20
2018-01-03T21:29:14.583Z,23.80
2018-01-03T21:31:42.242Z,28.87
2018-01-03T21:34:09.838Z,39.17
2018-01-03T21:36:37.434Z,37.33
2018-01-03T21:39:05.147Z,38.57
2018-01-03T21:41:32.746Z,41.10
2018-01-03T21:44:00.392Z,36.50
2018-01-03T21:46:27.998Z,37.50
2018-01-03T21:48:55.591Z,37.27
2018-01-03T21:51:23.198Z,41.70
2018-01-03T21:53:50.855Z,43.67
2018-01-03T21:56:18.566Z,49.07
2018-01-03T21:58:47.044Z,47.03
2018-01-03T22:01:14.716Z,49.60
2018-01-03T22:03:42.327Z,43.93
2018-01-03T22:06:09.938Z,51.03
2018-01-03T22:08:37.654Z,49.60
2018-01-03T22:11:05.259Z,48.30
2018-01-03T22:13:32.930Z,47.70
2018-01-03T22:16:00.544Z,48.83
2018-01-03T22:18:28.146Z,52.30
2018-01-03T22:20:55.815Z,50.63
2018-01-03T22:23:23.414Z,53.90
2018-01-03T22:25:51.018Z,51.33
2018-01-03T22:28:18.626Z,50.93
2018-01-03T22:30:46.274Z,49.97
2018-01-03T22:33:13.926Z,46.07
2018-01-03T22:35:41.591Z,46.27
2018-01-03T22:38:09.194Z,46.10
2018-01-03T22:40:36.803Z,45.73
2018-01-03T22:43:04.406Z,46.20
2018-01-03T22:45:32.055Z,42.00
2018-01-03T22:47:59.650Z,40.83
2018-01-03T22:50:27.242Z,37.30
2018-01-03T22:52:54.850Z,32.03
2018-01-03T22:55:22.505Z,29.23
2018-01-03T22:57:50.215Z,33.10
2018-01-03T23:00:17.806Z,27.70
2018-01-03T23:02:45.467Z,29.40
2018-01-03T23:05:13.071Z,33.00
2018-01-03T23:07:40.663Z,28.80
2018-01-03T23:10:08.372Z,23.53
2018-01-03T23:12:35.974Z,26.00
2018-01-03T23:15:03.594Z,25.87
2018-01-03T23:17:31.202Z,27.23
2018-01-03T23:19:58.861Z,23.53
2018-01-03T23:22:26.537Z,25.07
2018-01-03T23:24:54.138Z,24.80
2018-01-03T23:27:21.735Z,24.60
2018-01-03T23:29:49.343Z,26.80
2018-01-03T23:32:17.012Z,29.27
2018-01-03T23:34:44.722Z,30.43
2018-01-03T23:37:12.378Z,28.70
2018-01-03T23:39:40.036Z,34.80
2018-01-03T23:42:07.705Z,43.27
2018-01-03T23:44:35.367Z,44.00
2018-01-03T23:47:03.091Z,39.13
2018-01-03T23:49:30.752Z,34.47
2018-01-03T23:51:58.407Z,31.40
2018-01-03T23:54:26.020Z,28.30
2018-01-03T23:56:53.618Z,26.40
2018-01-03T23:59:21.373Z,22.77
